Time;durP1;ratioP1;P1;durP2;ratioP2;P2;SDS_P1;SDS_P2;PMS_P1;PMS_P2;Temp;Humidity;BMP_temperature;BMP_pressure;BME280_temperature;BME280_humidity;BME280_pressure;Samples;Min_cycle;Max_cycle;Signal;HPM_P1;HPM_P2
2022/08/24 00:01:27;;;;;;;80.22;48.90;;;;;;;19.48;82.69;97301.30;1733624;81;25722;-74
2022/08/24 00:03:58;;;;;;;84.67;47.53;;;;;;;19.47;82.73;97297.73;1733510;81;25702;-76
2022/08/24 00:06:26;;;;;;;82.37;47.10;;;;;;;19.43;82.79;97299.39;1733772;81;26498;-74
2022/08/24 00:08:55;;;;;;;85.55;48.83;;;;;;;19.39;82.98;97298.27;1733806;81;25726;-75
2022/08/24 00:11:22;;;;;;;83.25;47.00;;;;;;;19.36;82.99;97294.70;1733718;81;27385;-74
2022/08/24 00:13:50;;;;;;;88.20;48.92;;;;;;;19.36;83.09;97287.86;1733476;82;25890;-74
2022/08/24 00:16:17;;;;;;;88.03;47.48;;;;;;;19.33;83.09;97287.02;1733800;82;25761;-74
2022/08/24 00:18:46;;;;;;;86.78;48.08;;;;;;;19.34;83.16;97279.91;1733798;81;25705;-74
2022/08/24 00:21:14;;;;;;;85.90;47.90;;;;;;;19.34;83.17;97287.30;1733716;81;25671;-74
2022/08/24 00:23:41;;;;;;;85.20;47.93;;;;;;;19.34;83.17;97285.94;1729318;81;27425;-74
2022/08/24 00:26:09;;;;;;;83.82;46.37;;;;;;;19.34;83.21;97291.41;1717662;82;25756;-74
2022/08/24 00:28:36;;;;;;;83.45;47.38;;;;;;;19.33;83.23;97296.05;1717939;82;25683;-75
2022/08/24 00:31:03;;;;;;;77.90;44.55;;;;;;;19.33;83.30;97304.27;1717941;82;26430;-74
2022/08/24 00:33:30;;;;;;;79.97;46.45;;;;;;;19.33;83.34;97308.38;1717962;82;25495;-75
2022/08/24 00:35:57;;;;;;;79.15;46.05;;;;;;;19.33;83.38;97308.38;1718029;82;27464;-74
2022/08/24 00:38:23;;;;;;;76.05;45.95;;;;;;;19.32;83.36;97315.51;1717806;82;25477;-74
2022/08/24 00:40:50;;;;;;;74.42;45.00;;;;;;;19.32;83.36;97317.67;1717961;82;25745;-75
2022/08/24 00:43:21;;;;;;;70.37;44.27;;;;;;;19.34;83.45;97326.44;1717892;83;26314;-74
2022/08/24 00:46:15;;;;;;;68.57;43.35;;;;;;;19.38;83.43;97329.47;1718168;82;25754;-74
2022/08/24 00:48:45;;;;;;;78.12;44.90;;;;;;;19.38;83.40;97328.10;1717923;82;27632;-75
2022/08/24 00:51:23;;;;;;;70.17;42.73;;;;;;;19.35;83.47;97330.00;1713911;82;25856;-74
2022/08/24 00:53:55;;;;;;;68.72;41.50;;;;;;;19.35;83.50;97337.67;1714113;82;25738;-74
2022/08/24 00:56:29;;;;;;;70.65;44.40;;;;;;;19.33;83.56;97334.37;1714160;82;25676;-75
2022/08/24 00:59:07;;;;;;;68.85;41.68;;;;;;;19.34;83.57;97334.66;1704467;84;26302;-74
2022/08/24 01:01:35;;;;;;;76.70;43.40;;;;;;;19.35;83.59;97333.56;1704498;84;27370;-74
2022/08/24 01:04:04;;;;;;;69.62;43.55;;;;;;;19.36;83.57;97331.65;1704464;83;25820;-75
2022/08/24 01:06:32;;;;;;;72.60;43.00;;;;;;;19.36;83.65;97333.84;1704481;84;25752;-75
2022/08/24 01:08:59;;;;;;;68.10;43.17;;;;;;;19.40;83.63;97338.23;1704639;82;25844;-75
2022/08/24 01:11:29;;;;;;;71.75;44.90;;;;;;;19.39;83.54;97337.42;1704553;84;25787;-75
2022/08/24 01:13:56;;;;;;;66.12;41.95;;;;;;;19.40;83.59;97335.50;1704632;83;27445;-76
2022/08/24 01:19:14;;;;;;;73.55;44.05;;;;;;;19.41;83.56;97327.57;1704689;83;25817;-74
2022/08/24 01:21:57;;;;;;;68.17;42.27;;;;;;;19.43;83.55;97332.23;1634337;87;34855;-74
2022/08/24 01:24:24;;;;;;;70.87;44.45;;;;;;;19.43;83.53;97339.08;1632900;87;25783;-74
2022/08/24 01:26:50;;;;;;;75.70;43.00;;;;;;;19.43;83.54;97343.19;1637056;87;27484;-74
2022/08/24 01:29:25;;;;;;;71.07;43.58;;;;;;;19.39;83.47;97346.17;1636675;87;25826;-74
2022/08/24 01:31:52;;;;;;;74.53;44.50;;;;;;;19.37;83.53;97348.35;1637035;87;25825;-74
2022/08/24 01:34:20;;;;;;;75.42;45.80;;;;;;;19.37;83.58;97346.98;1636955;87;25762;-75
2022/08/24 01:36:53;;;;;;;76.75;46.10;;;;;;;19.40;83.61;97353.30;1636913;87;25758;-74
2022/08/24 01:39:39;;;;;;;74.00;45.15;;;;;;;19.42;83.57;97353.85;1636967;87;27385;-74
2022/08/24 01:42:06;;;;;;;80.62;46.45;;;;;;;19.43;83.57;97343.19;1639314;86;25865;-75
2022/08/24 01:44:35;;;;;;;79.27;46.58;;;;;;;19.47;83.57;97341.53;1636838;87;25853;-74
2022/08/24 01:47:05;;;;;;;81.95;47.35;;;;;;;19.48;83.52;97350.56;1636726;87;25901;-74
2022/08/24 01:49:35;;;;;;;83.78;48.08;;;;;;;19.48;83.53;97345.09;1636840;87;25789;-75
2022/08/24 01:52:05;;;;;;;83.07;47.62;;;;;;;19.48;83.51;97347.28;1636926;87;27496;-74
2022/08/24 01:54:32;;;;;;;78.78;46.85;;;;;;;19.51;83.51;97349.52;1637003;86;25501;-74
2022/08/24 01:56:59;;;;;;;76.45;45.58;;;;;;;19.53;83.41;97354.73;1657684;86;25812;-74
2022/08/24 01:59:26;;;;;;;73.47;45.95;;;;;;;19.51;83.44;97349.52;1694060;83;25684;-74
2022/08/24 02:02:10;;;;;;;85.60;47.03;;;;;;;19.52;83.44;97353.09;1717929;82;25411;-75
2022/08/24 02:04:37;;;;;;;77.78;45.28;;;;;;;19.52;83.46;97353.91;1645980;85;27393;-74
2022/08/24 02:07:04;;;;;;;78.42;46.68;;;;;;;19.52;83.47;97346.24;1645840;85;25817;-75
2022/08/24 02:09:31;;;;;;;73.62;45.65;;;;;;;19.51;83.43;97348.16;1645865;86;25839;-75
2022/08/24 02:11:58;;;;;;;75.32;46.83;;;;;;;19.51;83.49;97353.63;1645828;85;25900;-73
2022/08/24 02:14:25;;;;;;;74.75;47.75;;;;;;;19.52;83.46;97353.91;1645970;86;25807;-76
2022/08/24 02:16:51;;;;;;;72.95;48.13;;;;;;;19.52;83.39;97353.91;1645587;86;27554;-74
2022/08/24 02:19:18;;;;;;;76.65;47.17;;;;;;;19.53;83.38;97352.00;1645874;85;25719;-75
2022/08/24 02:21:45;;;;;;;71.90;46.80;;;;;;;19.52;83.35;97352.54;1645898;86;26527;-74
2022/08/24 02:24:12;;;;;;;69.35;46.53;;;;;;;19.51;83.30;97353.63;1645750;86;25816;-74
2022/08/24 02:26:39;;;;;;;71.80;47.27;;;;;;;19.49;83.26;97353.07;1645822;86;25852;-73
2022/08/24 02:29:06;;;;;;;74.97;47.05;;;;;;;19.44;83.25;97349.73;1645905;87;27433;-74
2022/08/24 02:31:33;;;;;;;72.92;47.85;;;;;;;19.43;83.31;97343.19;1645914;86;25824;-74
2022/08/24 02:33:59;;;;;;;74.92;48.42;;;;;;;19.44;83.37;97341.52;1645946;85;25857;-74
2022/08/24 02:36:26;;;;;;;72.78;46.37;;;;;;;19.46;83.36;97339.06;1645961;86;25784;-74
2022/08/24 02:38:54;;;;;;;76.67;48.42;;;;;;;19.43;83.34;97337.71;1645871;85;25532;-74
2022/08/24 02:43:52;;;;;;;78.02;47.62;;;;;;;19.41;83.31;97334.41;1549365;91;26011;-74
2022/08/24 02:46:21;;;;;;;73.75;44.48;;;;;;;19.41;83.33;97343.45;1519436;94;25795;-76
2022/08/24 02:48:49;;;;;;;67.30;44.33;;;;;;;19.41;83.34;97342.63;1495579;94;26550;-76
2022/08/24 02:51:31;;;;;;;72.65;46.63;;;;;;;19.42;83.33;97341.53;1510150;94;25797;-76
2022/08/24 02:54:00;;;;;;;69.27;44.95;;;;;;;19.42;83.37;97344.27;1495780;95;28074;-76
2022/08/24 02:56:30;;;;;;;73.52;45.60;;;;;;;19.42;83.43;97335.52;1510248;93;25585;-76
2022/08/24 02:58:59;;;;;;;73.92;45.30;;;;;;;19.42;83.44;97337.43;1526859;91;25906;-73
2022/08/24 03:01:28;;;;;;;69.95;45.90;;;;;;;19.42;83.44;97338.80;1556536;91;26552;-74
2022/08/24 03:03:56;;;;;;;70.25;44.42;;;;;;;19.41;83.43;97343.99;1556289;91;25747;-75
2022/08/24 03:06:23;;;;;;;66.15;42.40;;;;;;;19.40;83.40;97345.08;1556155;91;27548;-74
2022/08/24 03:08:49;;;;;;;66.17;44.00;;;;;;;19.38;83.37;97352.73;1556564;91;25881;-75
2022/08/24 03:11:16;;;;;;;70.47;45.90;;;;;;;19.38;83.51;97362.31;1556404;91;25787;-74
2022/08/24 03:13:43;;;;;;;70.00;45.20;;;;;;;19.37;83.52;97361.48;1556622;91;25758;-74
2022/08/24 03:16:09;;;;;;;74.62;43.70;;;;;;;19.33;83.51;97357.63;1556539;91;25748;-75
2022/08/24 03:18:37;;;;;;;66.28;43.48;;;;;;;19.30;83.61;97351.89;1556548;91;27504;-74
2022/08/24 03:21:04;;;;;;;65.45;43.23;;;;;;;19.29;83.70;97352.98;1556462;91;25892;-76
2022/08/24 03:23:32;;;;;;;67.17;42.90;;;;;;;19.33;83.69;97356.81;1556512;91;25771;-74
2022/08/24 03:26:00;;;;;;;67.82;44.05;;;;;;;19.32;83.71;97362.03;1550574;91;26595;-74
2022/08/24 03:28:27;;;;;;;70.47;44.95;;;;;;;19.34;83.73;97361.20;1601798;88;25856;-74
2022/08/24 03:30:54;;;;;;;69.80;42.60;;;;;;;19.36;83.72;97353.55;1601733;88;28176;-75
2022/08/24 03:33:20;;;;;;;67.17;42.70;;;;;;;19.37;83.67;97356.02;1601439;88;25304;-75
2022/08/24 03:35:47;;;;;;;65.25;42.78;;;;;;;19.35;83.74;97358.73;1601753;88;25815;-74
2022/08/24 03:38:15;;;;;;;64.40;41.53;;;;;;;19.38;83.80;97359.58;1601743;88;25839;-74
2022/08/24 03:40:41;;;;;;;67.82;43.50;;;;;;;19.39;83.75;97352.47;1655245;83;25778;-74
2022/08/24 03:43:44;;;;;;;72.03;44.20;;;;;;;19.42;83.71;97356.05;1717981;82;27470;-74
2022/08/24 03:45:36;;;;;;;67.10;42.65;;;;;;;19.43;83.59;97356.33;1713460;82;25696;-75
2022/08/24 03:48:03;;;;;;;65.85;43.87;;;;;;;19.42;83.62;97353.85;1717556;82;25213;-74
2022/08/24 03:50:30;;;;;;;62.62;43.10;;;;;;;19.42;83.65;97356.05;1717701;82;25799;-74
2022/08/24 03:52:57;;;;;;;66.70;43.17;;;;;;;19.44;83.59;97357.94;1717965;82;25815;-75
2022/08/24 03:55:24;;;;;;;63.02;41.68;;;;;;;19.45;83.53;97354.66;1718006;82;28264;-74
2022/08/24 03:57:51;;;;;;;63.60;41.85;;;;;;;19.47;83.48;97351.11;1717741;82;25758;-74
2022/08/24 04:00:18;;;;;;;69.53;44.45;;;;;;;19.48;83.44;97350.02;1717829;82;25696;-74
2022/08/24 04:02:45;;;;;;;69.77;42.55;;;;;;;19.49;83.39;97353.07;1717915;82;25758;-76
2022/08/24 04:05:12;;;;;;;64.00;42.43;;;;;;;19.51;83.32;97352.27;1717858;82;25221;-73
2022/08/24 04:07:38;;;;;;;63.10;41.85;;;;;;;19.53;83.28;97358.84;1717828;82;27390;-73
2022/08/24 04:10:06;;;;;;;68.30;42.75;;;;;;;19.50;83.32;97358.83;1718042;82;25677;-75
2022/08/24 04:12:33;;;;;;;67.03;43.87;;;;;;;19.49;83.38;97353.62;1718022;82;25782;-75
2022/08/24 04:15:00;;;;;;;58.80;40.33;;;;;;;19.49;83.38;97353.07;1717994;82;25399;-75
2022/08/24 04:17:27;;;;;;;60.78;40.17;;;;;;;19.50;83.35;97356.63;1717908;82;25715;-75
2022/08/24 04:19:56;;;;;;;57.67;38.10;;;;;;;19.47;83.29;97353.84;1717888;82;28180;-76
2022/08/24 04:22:30;;;;;;;55.58;39.48;;;;;;;19.47;83.24;97366.17;1717813;82;25833;-74
2022/08/24 04:24:57;;;;;;;60.48;40.83;;;;;;;19.42;83.18;97371.10;1723027;82;25695;-74
2022/08/24 04:27:24;;;;;;;63.15;41.48;;;;;;;19.41;83.28;97378.20;1733424;81;26429;-73
2022/08/24 04:29:50;;;;;;;61.42;41.75;;;;;;;19.42;83.33;97366.17;1733955;81;25425;-75
2022/08/24 04:32:17;;;;;;;60.70;40.90;;;;;;;19.43;83.40;97365.08;1733730;81;27357;-76
2022/08/24 04:34:44;;;;;;;59.90;40.83;;;;;;;19.42;83.38;97364.80;1733767;81;25444;-74
2022/08/24 04:37:12;;;;;;;61.83;41.68;;;;;;;19.42;83.41;97362.06;1733879;81;25698;-74
2022/08/24 04:39:40;;;;;;;59.88;41.05;;;;;;;19.39;83.47;97361.23;1733697;81;25743;-74
2022/08/24 04:42:08;;;;;;;63.52;41.40;;;;;;;19.34;83.50;97368.03;1734025;81;25803;-74
2022/08/24 04:44:35;;;;;;;59.75;40.67;;;;;;;19.33;83.63;97367.76;1733690;82;27521;-73
2022/08/24 04:47:02;;;;;;;70.10;41.37;;;;;;;19.32;83.70;97363.41;1733327;81;25304;-74
2022/08/24 04:49:29;;;;;;;53.90;37.53;;;;;;;19.33;83.75;97363.11;1733479;81;25654;-75
2022/08/24 04:51:55;;;;;;;58.55;40.10;;;;;;;19.30;83.77;97365.03;1733780;81;26447;-74
2022/08/24 04:54:23;;;;;;;60.58;39.65;;;;;;;19.28;83.81;97360.91;1733762;81;25880;-74
2022/08/24 04:56:50;;;;;;;59.88;38.67;;;;;;;19.29;83.89;97350.25;1733616;82;27382;-74
2022/08/24 04:59:16;;;;;;;58.65;38.88;;;;;;;19.28;83.93;97351.34;1733629;81;25492;-74
2022/08/24 05:01:43;;;;;;;56.53;37.45;;;;;;;19.27;83.92;97360.09;1733740;81;25738;-74
2022/08/24 05:04:10;;;;;;;62.40;39.75;;;;;;;19.23;84.00;97358.14;1733756;81;26269;-74
2022/08/24 05:06:36;;;;;;;62.85;39.78;;;;;;;19.23;84.15;97356.78;1733455;81;25992;-74
2022/08/24 05:09:05;;;;;;;63.15;39.50;;;;;;;19.24;84.13;97352.41;1733643;81;27359;-74
2022/08/24 05:11:32;;;;;;;64.45;38.73;;;;;;;19.22;84.10;97351.84;1733701;81;25954;-75
2022/08/24 05:13:58;;;;;;;76.53;41.88;;;;;;;19.18;84.07;97353.50;1729262;81;25646;-73
2022/08/24 05:16:27;;;;;;;68.33;40.38;;;;;;;19.16;84.18;97348.83;1733690;81;25797;-74
2022/08/24 05:18:55;;;;;;;68.00;40.52;;;;;;;19.13;84.20;97352.09;1733547;81;25908;-74
2022/08/24 05:21:24;;;;;;;65.75;40.38;;;;;;;19.07;84.32;97358.65;1733462;81;45421;-74
2022/08/24 05:23:51;;;;;;;72.17;41.83;;;;;;;19.01;84.49;97370.09;1733192;81;25759;-74
2022/08/24 05:26:23;;;;;;;64.95;38.73;;;;;;;19.00;84.57;97380.76;1733581;82;25695;-75
2022/08/24 05:28:52;;;;;;;;;;;;;;;19.01;84.65;97381.58;1620891;88;25981;-74
2022/08/24 05:31:22;;;;;;;64.17;36.20;;;;;;;19.00;84.97;97388.96;1618845;88;25730;-76
2022/08/24 05:33:50;;;;;;;65.12;37.63;;;;;;;18.99;84.94;97393.33;1618711;88;27018;-74
2022/08/24 05:36:24;;;;;;;66.02;38.23;;;;;;;18.99;84.96;97396.89;1618594;88;25727;-74
2022/08/24 05:38:54;;;;;;;60.67;34.98;;;;;;;18.99;85.04;97392.78;1618661;88;25841;-74
2022/08/24 05:41:20;;;;;;;59.50;36.05;;;;;;;19.02;85.09;97392.26;1618882;88;25784;-73
2022/08/24 05:43:47;;;;;;;58.60;35.75;;;;;;;19.07;85.07;97392.84;1618729;88;25784;-74
2022/08/24 05:46:15;;;;;;;55.43;34.18;;;;;;;19.10;85.06;97401.04;1618760;88;28290;-75
2022/08/24 05:48:42;;;;;;;56.45;35.52;;;;;;;19.11;84.95;97391.74;1618402;88;25828;-74
2022/08/24 05:51:10;;;;;;;62.60;36.42;;;;;;;19.13;84.94;97397.78;1618688;88;25743;-74
2022/08/24 05:53:39;;;;;;;57.03;34.33;;;;;;;19.13;84.88;97397.78;1618955;88;25751;-74
2022/08/24 05:56:09;;;;;;;61.28;35.65;;;;;;;19.15;84.84;97390.13;1619949;87;25754;-75
2022/08/24 05:58:37;;;;;;;57.55;35.28;;;;;;;19.16;84.89;97389.05;1645200;87;27593;-75
2022/08/24 06:01:14;;;;;;;56.50;35.45;;;;;;;19.19;84.88;97389.89;1646439;87;26155;-74
2022/08/24 06:03:43;;;;;;;57.43;33.78;;;;;;;19.21;84.89;97391.79;1526486;93;25905;-74
2022/08/24 06:06:10;;;;;;;60.70;34.75;;;;;;;19.24;84.86;97388.53;1526208;93;25933;-76
2022/08/24 06:08:41;;;;;;;58.55;35.10;;;;;;;19.25;84.81;97393.73;1526669;93;25588;-75
2022/08/24 06:11:09;;;;;;;54.63;33.67;;;;;;;19.26;84.80;97395.92;1526550;93;27562;-75
2022/08/24 06:13:36;;;;;;;58.73;35.65;;;;;;;19.26;84.82;97392.65;1526342;93;25987;-75
2022/08/24 06:16:10;;;;;;;55.88;34.23;;;;;;;19.27;84.82;97390.73;1526488;93;25896;-74
2022/08/24 06:18:38;;;;;;;57.60;33.53;;;;;;;19.29;84.82;97398.14;1489744;96;25980;-74
2022/08/24 06:21:11;;;;;;;50.85;32.00;;;;;;;19.29;84.80;97399.51;1489730;96;25889;-74
2022/08/24 06:23:39;;;;;;;56.48;32.80;;;;;;;19.29;84.79;97408.55;1489927;96;27436;-74
2022/08/24 06:28:53;;;;;;;53.23;31.75;;;;;;;19.26;84.86;97399.48;1495184;94;25863;-75
2022/08/24 06:31:21;;;;;;;57.95;33.75;;;;;;;19.27;84.89;97403.05;1503970;94;25843;-74
2022/08/24 06:33:47;;;;;;;56.58;32.60;;;;;;;19.28;84.88;97401.97;1506393;94;25874;-74
2022/08/24 06:36:14;;;;;;;52.30;32.45;;;;;;;19.28;84.89;97400.59;1497438;95;27406;-74
2022/08/24 06:38:40;;;;;;;50.65;32.00;;;;;;;19.28;84.93;97401.97;1508940;95;25862;-74
2022/08/24 06:41:08;;;;;;;55.50;32.67;;;;;;;19.30;84.95;97406.09;1522582;92;25861;-74
2022/08/24 06:43:36;;;;;;;52.10;31.07;;;;;;;19.33;84.98;97418.39;1552161;91;25783;-75
2022/08/24 06:46:04;;;;;;;53.33;31.37;;;;;;;19.33;84.98;97425.23;1551927;92;25873;-73
2022/08/24 06:48:31;;;;;;;53.02;32.78;;;;;;;19.34;84.99;97427.70;1551894;92;27106;-74
2022/08/24 06:50:58;;;;;;;50.67;30.40;;;;;;;19.37;85.02;97426.36;1552231;92;25827;-75
2022/08/24 06:53:25;;;;;;;48.95;29.30;;;;;;;19.39;85.09;97431.02;1552179;92;25927;-74
2022/08/24 06:55:56;;;;;;;47.67;29.60;;;;;;;19.39;85.11;97420.08;1552141;92;25849;-76
2022/08/24 06:58:27;;;;;;;54.25;30.85;;;;;;;19.40;85.06;97424.46;1552350;92;25590;-76
2022/08/24 07:00:55;;;;;;;56.42;32.40;;;;;;;19.43;85.06;97418.46;1558586;91;27429;-74
2022/08/24 07:03:23;;;;;;;55.98;30.82;;;;;;;19.46;85.09;97423.38;1570245;91;25331;-74
2022/08/24 07:05:56;;;;;;;50.60;29.87;;;;;;;19.47;85.06;97430.50;1561447;91;25765;-74
2022/08/24 07:08:23;;;;;;;48.10;29.48;;;;;;;19.48;84.99;97438.99;1568815;89;25834;-73
2022/08/24 07:10:50;;;;;;;52.55;32.45;;;;;;;19.49;85.03;97444.78;1588656;90;25379;-74
2022/08/24 07:13:17;;;;;;;51.42;32.05;;;;;;;19.48;85.06;97435.43;1588394;89;27389;-73
2022/08/24 07:15:44;;;;;;;50.38;30.80;;;;;;;19.49;85.11;97437.11;1631499;84;25503;-73
2022/08/24 07:18:17;;;;;;;56.28;32.53;;;;;;;19.52;85.10;97424.27;1665617;85;25866;-74
2022/08/24 07:20:45;;;;;;;53.45;32.67;;;;;;;19.51;85.10;97428.91;1665301;84;25677;-76
2022/08/24 07:23:13;;;;;;;51.85;31.95;;;;;;;19.53;85.16;97434.95;1667347;84;26031;-75
2022/08/24 07:25:41;;;;;;;52.13;30.92;;;;;;;19.56;85.21;97427.55;1663023;85;27673;-74
2022/08/24 07:28:09;;;;;;;48.05;29.63;;;;;;;19.60;85.32;97424.56;1660030;84;25987;-76
2022/08/24 07:30:37;;;;;;;53.20;30.90;;;;;;;19.64;85.28;97423.48;1665971;85;25336;-74
2022/08/24 07:33:04;;;;;;;50.48;30.70;;;;;;;19.66;85.21;97435.00;1660301;84;25812;-74
2022/08/24 07:35:32;;;;;;;57.70;31.90;;;;;;;19.66;85.22;97438.56;1658730;84;25281;-74
2022/08/24 07:38:00;;;;;;;48.48;30.43;;;;;;;19.69;85.27;97436.63;1641420;85;27463;-73
2022/08/24 07:40:28;;;;;;;48.58;29.92;;;;;;;19.70;85.25;97442.39;1641485;85;25551;-75
2022/08/24 07:42:57;;;;;;;51.25;31.00;;;;;;;19.71;85.14;97442.67;1641540;86;25779;-74
2022/08/24 07:45:25;;;;;;;46.98;28.50;;;;;;;19.72;85.22;97448.42;1658431;84;25830;-75
2022/08/24 07:47:52;;;;;;;46.42;27.50;;;;;;;19.72;85.32;97451.71;1620325;88;25901;-76
2022/08/24 07:50:19;;;;;;;44.13;27.40;;;;;;;19.74;85.50;97452.27;1679205;85;28184;-74
2022/08/24 07:52:46;;;;;;;41.95;26.42;;;;;;;19.77;85.49;97454.48;1683377;85;25781;-75
2022/08/24 07:55:13;;;;;;;42.75;27.05;;;;;;;19.82;85.37;97456.39;1683609;84;25808;-75
2022/08/24 07:57:40;;;;;;;46.77;27.65;;;;;;;19.85;85.41;97459.97;1713209;82;26481;-76
2022/08/24 08:00:11;;;;;;;47.45;28.30;;;;;;;19.86;85.50;97460.25;1747478;81;25810;-75
2022/08/24 08:02:41;;;;;;;38.42;24.55;;;;;;;19.87;85.45;97463.27;1747816;81;28406;-75
2022/08/24 08:05:08;;;;;;;36.53;24.00;;;;;;;19.90;85.38;97462.73;1747452;81;25922;-75
2022/08/24 08:07:34;;;;;;;37.30;24.50;;;;;;;19.90;85.24;97463.56;1747494;81;25732;-75
2022/08/24 08:10:02;;;;;;;43.30;24.67;;;;;;;19.94;85.17;97456.98;1747774;81;25707;-74
2022/08/24 08:12:29;;;;;;;36.25;23.92;;;;;;;19.97;85.21;97460.55;1747773;81;25731;-74
2022/08/24 08:14:56;;;;;;;38.78;23.50;;;;;;;20.00;85.23;97449.06;1747969;81;27314;-74
2022/08/24 08:17:23;;;;;;;37.25;24.75;;;;;;;20.04;85.35;97452.92;1747355;81;25864;-76
2022/08/24 08:19:50;;;;;;;35.45;22.50;;;;;;;20.06;85.45;97454.81;1747884;81;25738;-74
2022/08/24 08:25:04;;;;;;;31.65;22.02;;;;;;;20.14;85.26;97472.12;1747542;81;25683;-74
2022/08/24 08:27:31;;;;;;;30.43;22.07;;;;;;;20.16;85.14;97468.56;1762691;80;27391;-74
2022/08/24 08:29:58;;;;;;;31.75;20.85;;;;;;;20.19;85.04;97470.73;1764458;80;25996;-74
2022/08/24 08:32:24;;;;;;;34.45;22.07;;;;;;;20.22;84.96;97471.58;1764456;80;25753;-74
2022/08/24 08:34:51;;;;;;;33.42;22.32;;;;;;;20.26;84.99;97474.06;1764371;80;25766;-74
2022/08/24 08:37:18;;;;;;;34.85;22.40;;;;;;;20.33;84.96;97477.34;1764468;80;25702;-74
2022/08/24 08:39:45;;;;;;;32.13;20.45;;;;;;;20.39;84.89;97478.22;1764547;80;27427;-74
2022/08/24 08:42:32;;;;;;;32.03;20.57;;;;;;;20.42;84.76;97477.66;1764457;80;25757;-75
2022/08/24 08:45:22;;;;;;;30.75;21.02;;;;;;;20.41;84.57;97478.20;1757043;80;25587;-74
2022/08/24 08:48:25;;;;;;;35.28;23.12;;;;;;;20.38;84.65;97474.66;1757707;80;25686;-74
2022/08/24 08:51:41;;;;;;;29.32;20.68;;;;;;;20.40;84.66;97476.59;1685772;84;25849;-74
2022/08/24 08:54:29;;;;;;;32.25;19.45;;;;;;;20.41;84.47;97467.23;1688876;84;27997;-74
2022/08/24 08:57:31;;;;;;;30.95;18.05;;;;;;;20.42;84.35;97468.88;1688799;84;25826;-73
2022/08/24 09:00:21;;;;;;;29.02;19.10;;;;;;;20.45;84.29;97466.97;1637614;87;25859;-74
2022/08/24 09:03:01;;;;;;;29.92;18.98;;;;;;;20.53;84.47;97467.55;1589420;90;25847;-74
2022/08/24 09:05:38;;;;;;;32.65;19.45;;;;;;;20.61;84.60;97468.36;1589557;90;25628;-73
2022/08/24 09:08:33;;;;;;;26.48;18.52;;;;;;;20.68;84.62;97466.16;1589349;90;27513;-74
2022/08/24 09:11:37;;;;;;;29.37;18.30;;;;;;;20.73;84.26;97469.73;1589222;90;25734;-74
2022/08/24 09:14:33;;;;;;;28.40;19.75;;;;;;;20.77;84.05;97470.02;1586289;90;25938;-74
2022/08/24 09:17:36;;;;;;;25.32;17.23;;;;;;;20.84;83.99;97456.83;1589298;89;26667;-74
2022/08/24 09:20:08;;;;;;;28.60;18.05;;;;;;;20.92;83.75;97449.41;1568674;91;26004;-74
2022/08/24 09:22:48;;;;;;;29.18;17.90;;;;;;;21.04;83.64;97455.97;1562982;91;27417;-75
2022/08/24 09:25:44;;;;;;;26.68;17.20;;;;;;;21.12;83.42;97456.25;1567336;91;25844;-75
2022/08/24 09:28:35;;;;;;;26.17;17.45;;;;;;;21.20;83.20;97461.20;1615647;87;25925;-76
2022/08/24 09:31:33;;;;;;;26.77;15.95;;;;;;;21.26;83.05;97454.30;1645430;87;25880;-75
2022/08/24 09:34:10;;;;;;;25.45;15.98;;;;;;;21.29;82.65;97458.70;1644931;87;25787;-76
2022/08/24 09:36:54;;;;;;;29.40;15.30;;;;;;;21.29;82.48;97463.36;1645391;87;27572;-76
2022/08/24 09:39:47;;;;;;;30.72;16.20;;;;;;;21.26;82.37;97461.16;1660496;84;25801;-75
2022/08/24 09:42:36;;;;;;;26.85;16.27;;;;;;;21.34;82.48;97459.25;1706450;82;25758;-75
2022/08/24 09:45:31;;;;;;;26.93;15.35;;;;;;;21.41;82.38;97450.15;1703078;84;26529;-76
2022/08/24 09:48:22;;;;;;;26.97;15.10;;;;;;;21.32;82.19;97436.18;1704146;82;25833;-76
2022/08/24 09:51:29;;;;;;;26.80;16.75;;;;;;;21.49;81.99;97453.13;1704055;84;28236;-76
2022/08/24 09:54:13;;;;;;;25.48;16.62;;;;;;;21.55;81.91;97449.83;1703037;84;25913;-75
2022/08/24 09:56:54;;;;;;;31.77;14.60;;;;;;;21.59;81.71;97451.47;1726520;81;25739;-75
2022/08/24 09:59:38;;;;;;;27.82;16.15;;;;;;;21.63;82.04;97440.17;1701122;84;26440;-74
2022/08/24 10:02:21;;;;;;;27.37;15.58;;;;;;;21.70;81.82;97440.16;1626030;87;25925;-75
2022/08/24 10:05:13;;;;;;;32.33;15.13;;;;;;;21.84;81.80;97436.25;1554347;91;28103;-74
2022/08/24 10:08:16;;;;;;;28.70;14.05;;;;;;;21.84;81.80;97436.25;1579950;90;25802;-75
2022/08/24 10:11:32;;;;;;;30.37;13.88;;;;;;;21.92;81.49;97441.97;1581453;89;25356;-75
2022/08/24 10:14:38;;;;;;;28.23;14.15;;;;;;;21.96;80.98;97443.60;1532880;93;25739;-75
2022/08/24 10:17:22;;;;;;;27.17;15.63;;;;;;;21.93;80.37;97439.48;1487173;96;25865;-76
2022/08/24 10:20:23;;;;;;;39.42;14.80;;;;;;;21.93;80.37;97439.48;1487084;96;28303;-74
2022/08/24 10:23:18;;;;;;;31.05;14.05;;;;;;;22.01;80.65;97440.02;1468179;97;25896;-75
2022/08/24 10:26:04;;;;;;;29.98;14.47;;;;;;;22.04;80.29;97444.95;1446979;98;25896;-74
2022/08/24 10:28:54;;;;;;;30.77;13.48;;;;;;;22.08;80.13;97438.61;1467450;97;25904;-76
2022/08/24 10:31:32;;;;;;;34.85;15.53;;;;;;;22.13;80.05;97435.00;1467765;97;25530;-75
2022/08/24 10:34:24;;;;;;;31.25;14.20;;;;;;;22.17;79.95;97432.78;1408210;101;27461;-75
2022/08/24 10:37:08;;;;;;;38.63;13.83;;;;;;;22.31;80.10;97437.09;1405805;101;25615;-74
2022/08/24 10:39:50;;;;;;;35.00;15.13;;;;;;;22.52;80.01;97430.31;1408628;101;25896;-76
2022/08/24 10:45:42;;;;;;;;;;;;;;;22.69;79.00;97432.66;1450613;97;25839;-76
2022/08/24 10:48:32;;;;;;;33.42;14.95;;;;;;;22.73;78.45;97432.33;1452117;98;27485;-76
2022/08/24 10:51:24;;;;;;;37.23;13.50;;;;;;;22.73;78.67;97432.89;1420427;99;25971;-75
2022/08/24 10:53:53;;;;;;;39.75;14.85;;;;;;;22.70;78.18;97437.61;1421142;100;25911;-74
2022/08/24 10:56:42;;;;;;;36.30;14.23;;;;;;;22.66;77.96;97437.91;1432039;99;25897;-74
2022/08/24 10:59:29;;;;;;;36.58;13.13;;;;;;;22.64;78.01;97436.27;1443466;96;25939;-75
2022/08/24 11:02:08;;;;;;;35.05;13.48;;;;;;;22.67;77.83;97436.81;1492430;96;27505;-75
2022/08/24 11:04:36;;;;;;;45.67;14.38;;;;;;;22.65;77.65;97427.47;1540258;91;25977;-75
2022/08/24 11:07:18;;;;;;;41.35;14.47;;;;;;;22.69;77.83;97424.97;1569516;91;25754;-76
2022/08/24 11:09:52;;;;;;;39.27;14.65;;;;;;;22.76;78.10;97426.84;1569531;91;26483;-74
2022/08/24 11:12:40;;;;;;;39.80;14.25;;;;;;;22.83;77.83;97425.94;1569511;91;25953;-75
2022/08/24 11:15:22;;;;;;;41.02;14.15;;;;;;;22.85;78.06;97428.67;1569454;91;28243;-75
2022/08/24 11:17:57;;;;;;;;;;;;;;;22.90;78.01;97428.64;1528760;93;25918;-75
2022/08/24 11:20:35;;;;;;;38.58;13.28;;;;;;;22.91;77.80;97421.20;1536587;92;25812;-76
2022/08/24 11:23:15;;;;;;;37.45;14.25;;;;;;;22.93;77.71;97420.37;1495122;95;25804;-75
2022/08/24 11:25:56;;;;;;;44.33;14.20;;;;;;;22.97;77.51;97415.91;1482594;95;25828;-74
2022/08/24 11:28:31;;;;;;;38.55;13.98;;;;;;;22.96;77.30;97418.39;1444757;98;28296;-75
2022/08/24 11:30:59;;;;;;;40.63;13.40;;;;;;;22.98;77.49;97415.61;1483096;95;25832;-74
2022/08/24 11:33:33;;;;;;;43.35;14.00;;;;;;;23.03;77.28;97418.88;1508775;95;25823;-76
2022/08/24 11:36:02;;;;;;;34.40;13.38;;;;;;;23.07;77.23;97417.17;1508785;95;25686;-75
2022/08/24 11:38:33;;;;;;;35.92;13.60;;;;;;;23.08;76.95;97418.81;1508617;95;25849;-74
2022/08/24 11:41:18;;;;;;;44.70;14.33;;;;;;;23.11;77.04;97422.37;1508767;95;28404;-75
2022/08/24 11:44:11;;;;;;;45.98;14.05;;;;;;;23.16;76.88;97425.08;1508892;95;25874;-74
2022/08/24 11:46:52;;;;;;;39.50;14.93;;;;;;;23.19;76.70;97423.09;1484311;96;25851;-74
2022/08/24 11:49:35;;;;;;;38.83;15.28;;;;;;;23.23;76.62;97431.05;1458577;96;25812;-75
2022/08/24 11:52:16;;;;;;;39.48;14.07;;;;;;;23.25;76.37;97423.33;1429580;99;25974;-74
2022/08/24 11:54:57;;;;;;;41.85;14.33;;;;;;;23.29;76.57;97427.70;1442142;99;27615;-75
2022/08/24 11:57:44;;;;;;;39.38;13.98;;;;;;;23.26;76.17;97433.23;1441965;99;25779;-75